Decoded Metar for EPGD (GDANSK in POLAND) (IATA:GDN) | Meteo·Mobile Aviation Weather
aviador You're here:

EPGD Decoded Metar

GDANSK in POLAND
Report Time2018-09-19 20:00:00
UTC Time2018-09-19 20:23:49
Flight Rules vfr VFR
WindVRB at 02 kt
Visibility9999 m
Phenomena:N/A
Clouds:N/A
CeilingNone
Temp15°C (ISA +1)
Dew Point15°C (100% RH)
QNH1018 hPa
Density Alt620 ft
Elevation453 ft
Report Wrong Elevation
Raw Report
EPGD 192000Z VRB02KT CAVOK 15/15 Q1018=

Extra information for EPGD:More info

Metar Taf Metar & Taf Last 4 Metars F.Rules Stats Wind Profile Meteogram Temp Stats Airport Information Weather charts Add Link Nearby VenuesMetar ALERT Operation Metar Decoded Social comments